createdAt,value
2022-11-09T00:00:46.798Z,1.00
2022-11-09T00:03:14.721Z,1.00
2022-11-09T00:05:42.631Z,0.93
2022-11-09T00:08:11.360Z,1.00
2022-11-09T00:10:39.230Z,1.10
2022-11-09T00:13:07.192Z,0.90
2022-11-09T00:15:36.415Z,0.97
2022-11-09T00:18:04.465Z,0.97
2022-11-09T00:20:32.713Z,1.10
2022-11-09T00:23:00.741Z,1.00
2022-11-09T00:25:28.622Z,0.80
2022-11-09T00:27:56.495Z,0.90
2022-11-09T00:30:27.542Z,0.90
2022-11-09T00:32:56.846Z,1.03
2022-11-09T00:35:24.715Z,1.00
2022-11-09T00:37:52.675Z,1.00
2022-11-09T00:40:20.588Z,0.90
2022-11-09T00:42:48.604Z,0.80
2022-11-09T00:45:17.160Z,1.10
2022-11-09T00:47:45.608Z,0.90
2022-11-09T00:50:15.014Z,0.90
2022-11-09T00:52:42.919Z,1.00
2022-11-09T00:55:10.904Z,0.90
2022-11-09T00:57:39.393Z,0.80
2022-11-09T01:00:08.411Z,0.80
2022-11-09T01:02:36.286Z,0.80
2022-11-09T01:05:04.626Z,0.83
2022-11-09T01:07:33.853Z,0.80
2022-11-09T01:10:01.885Z,1.03
2022-11-09T01:12:29.791Z,1.00
2022-11-09T01:14:57.645Z,1.00
2022-11-09T01:17:27.097Z,1.00
2022-11-09T01:19:56.237Z,1.07
2022-11-09T01:22:24.374Z,1.00
2022-11-09T01:24:53.849Z,0.90
2022-11-09T01:27:21.765Z,0.90
2022-11-09T01:29:49.881Z,0.80
2022-11-09T01:32:17.732Z,0.90
2022-11-09T01:34:45.619Z,1.00
2022-11-09T01:37:13.508Z,0.90
2022-11-09T01:39:41.447Z,0.80
2022-11-09T01:42:10.682Z,1.17
2022-11-09T01:44:39.404Z,0.80
2022-11-09T01:47:11.444Z,0.90
2022-11-09T01:49:43.260Z,0.80
2022-11-09T01:52:12.928Z,1.00
2022-11-09T01:54:44.653Z,1.00
2022-11-09T01:57:16.824Z,0.80
2022-11-09T01:59:47.446Z,1.00
2022-11-09T02:02:15.405Z,0.90
2022-11-09T02:04:46.273Z,0.90
2022-11-09T02:07:14.178Z,0.87
2022-11-09T02:09:47.309Z,1.10
2022-11-09T02:12:16.530Z,0.90
2022-11-09T02:14:44.423Z,0.90
2022-11-09T02:17:12.344Z,0.70
2022-11-09T02:19:40.274Z,0.90
2022-11-09T02:22:09.504Z,0.73
2022-11-09T02:24:37.364Z,0.90
2022-11-09T02:27:06.176Z,0.90
2022-11-09T02:29:36.145Z,0.90
2022-11-09T02:32:06.006Z,1.00
2022-11-09T02:34:33.913Z,0.90
2022-11-09T02:37:03.264Z,1.00
2022-11-09T02:39:33.615Z,0.73
2022-11-09T02:42:07.839Z,0.80
2022-11-09T02:44:39.219Z,0.90
2022-11-09T02:47:08.851Z,0.90
2022-11-09T02:49:36.730Z,0.77
2022-11-09T02:52:04.777Z,0.73
2022-11-09T02:54:34.133Z,0.83
2022-11-09T02:57:02.050Z,0.80
2022-11-09T02:59:30.045Z,0.80
2022-11-09T03:01:58.766Z,0.93
2022-11-09T03:04:28.118Z,0.70
2022-11-09T03:06:56.120Z,0.87
2022-11-09T03:09:24.367Z,0.80
2022-11-09T03:11:53.609Z,0.83
2022-11-09T03:14:22.439Z,0.90
2022-11-09T03:16:55.537Z,0.80
2022-11-09T03:19:23.815Z,0.90
2022-11-09T03:21:53.456Z,0.63
2022-11-09T03:24:24.526Z,0.77
2022-11-09T03:26:58.830Z,0.80
2022-11-09T03:29:26.954Z,0.70
2022-11-09T03:31:56.428Z,0.80
2022-11-09T03:34:24.552Z,0.80
2022-11-09T03:36:52.584Z,0.90
2022-11-09T03:39:21.973Z,0.90
2022-11-09T03:41:49.905Z,0.80
2022-11-09T03:44:20.021Z,0.90
2022-11-09T03:46:47.943Z,0.90
2022-11-09T03:49:15.820Z,0.70
2022-11-09T03:51:43.852Z,0.70
2022-11-09T03:54:11.726Z,0.80
2022-11-09T03:56:39.741Z,0.80
2022-11-09T03:59:07.584Z,0.70
2022-11-09T04:01:36.876Z,1.00
2022-11-09T04:04:04.977Z,0.73
2022-11-09T04:06:33.174Z,0.80
2022-11-09T04:09:01.056Z,0.80
2022-11-09T04:11:29.278Z,0.80
2022-11-09T04:13:57.164Z,0.80
2022-11-09T04:16:25.039Z,0.83
2022-11-09T04:18:54.259Z,0.83
2022-11-09T04:21:24.054Z,0.90
2022-11-09T04:23:52.253Z,0.90
2022-11-09T04:26:20.137Z,0.83
2022-11-09T04:28:48.007Z,0.90
2022-11-09T04:31:16.683Z,0.80
2022-11-09T04:33:44.542Z,0.80
2022-11-09T04:36:13.952Z,0.87
2022-11-09T04:38:41.850Z,0.97
2022-11-09T04:41:09.989Z,0.70
2022-11-09T04:43:37.862Z,0.73
2022-11-09T04:46:05.908Z,0.80
2022-11-09T04:48:33.838Z,0.90
2022-11-09T04:51:02.216Z,0.90
2022-11-09T04:53:31.435Z,0.90
2022-11-09T04:55:59.579Z,1.00
2022-11-09T04:58:27.647Z,1.07
2022-11-09T05:00:55.513Z,1.00
2022-11-09T05:03:23.607Z,1.70
2022-11-09T05:05:51.520Z,1.17
2022-11-09T05:08:19.393Z,1.07
2022-11-09T05:10:48.605Z,1.00
2022-11-09T05:13:16.626Z,0.93
2022-11-09T05:15:44.590Z,7.53
2022-11-09T05:18:12.443Z,1.83
2022-11-09T05:20:40.276Z,4.40
2022-11-09T05:23:25.847Z,1.93
2022-11-09T05:25:55.055Z,4.17
2022-11-09T05:28:22.953Z,1.90
2022-11-09T05:30:50.809Z,1.40
2022-11-09T05:33:18.966Z,1.93
2022-11-09T05:35:47.313Z,1.50
2022-11-09T05:38:15.174Z,1.50
2022-11-09T05:40:44.849Z,1.10
2022-11-09T05:43:14.072Z,1.10
2022-11-09T05:45:43.570Z,1.33
2022-11-09T05:48:12.140Z,1.30
2022-11-09T05:50:41.126Z,2.07
2022-11-09T05:53:24.430Z,1.63
2022-11-09T05:55:52.733Z,3.33
2022-11-09T05:58:22.103Z,1.83
2022-11-09T06:00:50.149Z,2.97
2022-11-09T06:03:18.657Z,4.67
2022-11-09T06:05:47.671Z,2.33
2022-11-09T06:08:16.072Z,2.00
2022-11-09T06:10:44.190Z,1.90
2022-11-09T06:13:12.130Z,2.10
2022-11-09T06:15:41.354Z,2.00
2022-11-09T06:18:09.259Z,2.03
2022-11-09T06:20:37.286Z,1.90
2022-11-09T06:23:05.178Z,1.80
2022-11-09T06:25:33.570Z,2.00
2022-11-09T06:28:01.752Z,2.00
2022-11-09T06:30:29.736Z,2.23
2022-11-09T06:33:02.343Z,1.87
2022-11-09T06:35:30.397Z,2.10
2022-11-09T06:37:58.517Z,1.70
2022-11-09T06:40:26.524Z,2.20
2022-11-09T06:42:54.540Z,1.83
2022-11-09T06:45:22.443Z,2.03
2022-11-09T06:47:50.312Z,2.20
2022-11-09T06:50:19.629Z,1.87
2022-11-09T06:52:47.540Z,3.53
2022-11-09T06:55:15.519Z,2.40
2022-11-09T06:57:43.411Z,2.20
2022-11-09T07:00:12.725Z,2.00
2022-11-09T07:02:40.605Z,2.17
2022-11-09T07:05:08.851Z,1.80
2022-11-09T07:07:38.072Z,1.83
2022-11-09T07:10:06.772Z,1.77
2022-11-09T07:12:35.575Z,1.63
2022-11-09T07:15:03.560Z,1.90
2022-11-09T07:17:31.580Z,2.10
2022-11-09T07:19:59.602Z,2.00
2022-11-09T07:22:28.415Z,2.13
2022-11-09T07:24:57.628Z,1.53
2022-11-09T07:27:28.117Z,1.70
2022-11-09T07:29:56.510Z,1.90
2022-11-09T07:32:40.616Z,1.90
2022-11-09T07:35:12.465Z,1.70
2022-11-09T07:37:40.313Z,1.77
2022-11-09T07:40:11.052Z,1.50
2022-11-09T07:42:38.922Z,1.67
2022-11-09T07:45:08.482Z,2.23
2022-11-09T07:47:36.375Z,1.60
2022-11-09T07:50:04.499Z,1.80
2022-11-09T07:52:32.380Z,1.97
2022-11-09T07:55:00.245Z,1.63
2022-11-09T07:57:29.609Z,1.43
2022-11-09T07:59:57.612Z,1.70
2022-11-09T08:02:25.511Z,1.67
2022-11-09T08:04:53.929Z,1.70
2022-11-09T08:07:23.528Z,1.63
2022-11-09T08:09:51.434Z,1.70
2022-11-09T08:12:19.445Z,1.53
2022-11-09T08:14:48.685Z,1.63
2022-11-09T08:17:16.702Z,1.70
2022-11-09T08:19:44.844Z,1.80
2022-11-09T08:22:12.984Z,1.70
2022-11-09T08:24:40.887Z,2.03
2022-11-09T08:27:08.733Z,1.93
2022-11-09T08:29:36.782Z,1.60
2022-11-09T08:32:06.111Z,1.90
2022-11-09T08:34:33.968Z,1.40
2022-11-09T08:37:02.475Z,2.00
2022-11-09T08:39:30.342Z,1.70
2022-11-09T08:41:58.332Z,1.60
2022-11-09T08:44:26.379Z,1.50
2022-11-09T08:46:54.279Z,1.90
2022-11-09T08:49:23.489Z,1.40
2022-11-09T08:51:51.594Z,1.50
2022-11-09T08:54:19.461Z,1.50
2022-11-09T08:56:47.387Z,1.83
2022-11-09T08:59:15.242Z,1.40
2022-11-09T09:01:43.142Z,1.73
2022-11-09T09:04:11.045Z,1.57
2022-11-09T09:06:40.319Z,1.93
2022-11-09T09:09:08.268Z,1.23
2022-11-09T09:11:36.264Z,1.70
2022-11-09T09:14:04.159Z,1.47
2022-11-09T09:16:32.042Z,1.40
2022-11-09T09:18:59.949Z,1.20
2022-11-09T09:21:27.834Z,1.20
2022-11-09T09:23:57.070Z,1.43
2022-11-09T09:26:25.093Z,1.60
2022-11-09T09:28:52.969Z,1.67
2022-11-09T09:31:20.846Z,1.43
2022-11-09T09:33:48.782Z,1.20
2022-11-09T09:36:17.784Z,1.47
2022-11-09T09:38:45.644Z,1.40
2022-11-09T09:41:19.700Z,1.40
2022-11-09T09:43:48.719Z,1.83
2022-11-09T09:46:19.778Z,1.80
2022-11-09T09:48:49.307Z,1.20
2022-11-09T09:51:19.851Z,1.57
2022-11-09T09:53:50.391Z,1.30
2022-11-09T09:56:20.158Z,1.57
2022-11-09T09:58:50.598Z,1.40
2022-11-09T10:01:20.237Z,1.20
2022-11-09T10:03:48.184Z,1.30
2022-11-09T10:06:27.541Z,1.33
2022-11-09T10:08:58.937Z,1.30
2022-11-09T10:11:31.023Z,1.40
2022-11-09T10:14:08.385Z,1.40
2022-11-09T10:16:39.088Z,1.20
2022-11-09T10:19:19.178Z,1.20
2022-11-09T10:21:49.943Z,1.43
2022-11-09T10:24:24.387Z,1.20
2022-11-09T10:26:55.571Z,1.40
2022-11-09T10:29:24.732Z,1.40
2022-11-09T10:31:54.115Z,1.33
2022-11-09T10:34:24.141Z,1.83
2022-11-09T10:37:02.532Z,1.20
2022-11-09T10:39:36.894Z,1.30
2022-11-09T10:42:24.528Z,1.20
2022-11-09T10:45:16.375Z,1.30
2022-11-09T10:48:02.948Z,1.50
2022-11-09T10:50:51.802Z,1.27
2022-11-09T10:53:38.123Z,1.17
2022-11-09T10:56:25.207Z,1.20
2022-11-09T10:59:32.959Z,1.10
2022-11-09T11:02:40.681Z,1.20
2022-11-09T11:05:29.695Z,1.40
2022-11-09T11:08:34.610Z,1.20
2022-11-09T11:11:34.999Z,1.20
2022-11-09T11:14:24.328Z,1.40
2022-11-09T11:17:23.404Z,1.23
2022-11-09T11:20:29.108Z,1.33
2022-11-09T11:23:17.252Z,1.20
2022-11-09T11:26:21.061Z,1.00
2022-11-09T11:29:12.339Z,1.20
2022-11-09T11:31:58.912Z,1.50
2022-11-09T11:34:59.767Z,1.13
2022-11-09T11:37:52.626Z,1.23
2022-11-09T11:40:42.477Z,0.90
2022-11-09T11:43:36.782Z,1.10
2022-11-09T11:46:26.519Z,1.30
2022-11-09T11:49:28.266Z,1.20
2022-11-09T11:52:18.853Z,2.30
2022-11-09T11:55:41.260Z,1.20
2022-11-09T11:58:37.625Z,1.20
2022-11-09T12:01:32.454Z,1.10
2022-11-09T12:04:38.036Z,1.03
2022-11-09T12:07:32.325Z,1.30
2022-11-09T12:10:25.023Z,1.37
2022-11-09T12:13:18.270Z,1.50
2022-11-09T12:16:07.574Z,1.40
2022-11-09T12:19:00.478Z,1.20
2022-11-09T12:21:50.158Z,0.97
2022-11-09T12:24:41.083Z,1.13
2022-11-09T12:27:38.900Z,1.13
2022-11-09T12:30:26.983Z,1.20
2022-11-09T12:33:15.173Z,1.20
2022-11-09T12:36:04.036Z,1.20
2022-11-09T12:38:58.020Z,1.50
2022-11-09T12:41:46.265Z,1.30
2022-11-09T12:44:34.304Z,1.63
2022-11-09T12:47:23.555Z,1.40
2022-11-09T12:50:13.101Z,1.20
2022-11-09T12:52:59.657Z,1.40
2022-11-09T12:55:48.497Z,1.20
2022-11-09T12:58:37.680Z,1.17
2022-11-09T13:01:46.272Z,1.40
2022-11-09T13:04:32.587Z,1.30
2022-11-09T13:07:27.408Z,1.07
2022-11-09T13:10:25.936Z,1.20
2022-11-09T13:13:24.020Z,1.30
2022-11-09T13:16:14.284Z,1.07
2022-11-09T13:19:00.679Z,1.33
2022-11-09T13:21:46.995Z,1.30
2022-11-09T13:24:55.055Z,1.23
2022-11-09T13:27:42.949Z,1.20
2022-11-09T13:30:50.844Z,1.50
2022-11-09T13:33:40.190Z,1.30
2022-11-09T13:36:26.898Z,1.07
2022-11-09T13:39:32.910Z,1.33
2022-11-09T13:42:27.210Z,1.17
2022-11-09T13:45:30.253Z,1.23
2022-11-09T13:48:31.462Z,1.40
2022-11-09T13:51:19.811Z,1.30
2022-11-09T13:54:06.709Z,1.30
2022-11-09T13:56:52.957Z,1.10
2022-11-09T13:59:41.453Z,1.20
2022-11-09T14:02:27.943Z,1.30
2022-11-09T14:05:27.818Z,1.30
2022-11-09T14:08:20.436Z,1.40
2022-11-09T14:11:25.583Z,1.30
2022-11-09T14:14:35.399Z,1.60
2022-11-09T14:17:24.451Z,1.30
2022-11-09T14:20:16.067Z,1.40
2022-11-09T14:23:03.142Z,1.30
2022-11-09T14:25:52.621Z,2.07
2022-11-09T14:28:39.253Z,1.70
2022-11-09T14:31:26.485Z,1.40
2022-11-09T14:34:15.422Z,1.40
2022-11-09T14:37:04.879Z,1.33
2022-11-09T14:39:54.393Z,1.53
2022-11-09T14:42:46.154Z,1.37
2022-11-09T14:45:32.570Z,1.57
2022-11-09T14:48:20.108Z,1.40
2022-11-09T14:51:07.928Z,1.20
2022-11-09T14:53:54.436Z,1.40
2022-11-09T14:56:41.167Z,1.43
2022-11-09T14:59:31.921Z,1.50
2022-11-09T15:02:19.021Z,1.63
2022-11-09T15:05:06.951Z,1.70
2022-11-09T15:07:53.467Z,1.57
2022-11-09T15:10:39.901Z,1.90
2022-11-09T15:13:31.993Z,2.00
2022-11-09T15:16:24.298Z,1.47
2022-11-09T15:19:24.077Z,1.70
2022-11-09T15:22:42.667Z,1.50
2022-11-09T15:25:31.171Z,1.53
2022-11-09T15:28:23.182Z,2.97
2022-11-09T15:31:16.082Z,1.87
2022-11-09T15:34:16.939Z,1.63
2022-11-09T15:37:03.609Z,1.50
2022-11-09T15:39:50.016Z,1.80
2022-11-09T15:42:36.304Z,1.77
2022-11-09T15:45:22.916Z,1.70
2022-11-09T15:48:09.562Z,1.60
2022-11-09T15:50:57.450Z,1.70
2022-11-09T15:53:43.833Z,1.90
2022-11-09T15:56:30.694Z,1.67
2022-11-09T15:59:20.064Z,2.13
2022-11-09T16:02:06.619Z,1.83
2022-11-09T16:04:52.954Z,1.80
2022-11-09T16:07:47.932Z,1.90
2022-11-09T16:10:37.357Z,1.77
2022-11-09T16:13:24.022Z,1.80
2022-11-09T16:16:11.687Z,1.93
2022-11-09T16:18:58.442Z,2.23
2022-11-09T16:21:44.839Z,2.27
2022-11-09T16:24:32.687Z,2.63
2022-11-09T16:27:48.018Z,2.17
2022-11-09T16:30:25.393Z,1.67
2022-11-09T16:33:11.943Z,1.90
2022-11-09T16:35:59.692Z,1.97
2022-11-09T16:38:47.614Z,1.73
2022-11-09T16:41:36.089Z,1.70
2022-11-09T16:44:23.778Z,1.80
2022-11-09T16:47:11.817Z,1.60
2022-11-09T16:49:58.107Z,1.90
2022-11-09T16:52:44.692Z,1.77
2022-11-09T16:55:31.174Z,1.80
2022-11-09T16:58:19.379Z,1.70
2022-11-09T17:01:12.130Z,1.60
2022-11-09T17:03:59.077Z,1.57
2022-11-09T17:06:45.596Z,1.87
2022-11-09T17:09:34.265Z,1.80
2022-11-09T17:12:20.963Z,1.80
2022-11-09T17:15:09.978Z,1.50
2022-11-09T17:17:56.442Z,1.60
2022-11-09T17:20:44.234Z,1.60
2022-11-09T17:23:31.494Z,1.87
2022-11-09T17:26:18.081Z,1.97
2022-11-09T17:29:04.792Z,2.80
2022-11-09T17:31:52.900Z,3.20
2022-11-09T17:34:39.394Z,3.40
2022-11-09T17:37:26.268Z,3.30
2022-11-09T17:40:13.099Z,4.37
2022-11-09T17:42:59.588Z,3.50
2022-11-09T17:45:45.939Z,4.13
2022-11-09T17:48:33.959Z,4.30
2022-11-09T17:51:21.048Z,5.10
2022-11-09T17:54:07.510Z,5.47
2022-11-09T17:56:53.878Z,5.80
2022-11-09T17:59:40.172Z,5.30
2022-11-09T18:02:26.648Z,5.70
2022-11-09T18:05:16.561Z,6.13
2022-11-09T18:08:03.192Z,8.40
2022-11-09T18:10:50.286Z,8.37
2022-11-09T18:13:36.580Z,8.10
2022-11-09T18:16:23.029Z,8.03
2022-11-09T18:19:09.316Z,11.10
2022-11-09T18:21:56.929Z,11.27
2022-11-09T18:24:43.554Z,10.53
2022-11-09T18:27:30.666Z,10.93
2022-11-09T18:30:17.780Z,13.57
2022-11-09T18:33:04.178Z,11.87
2022-11-09T18:35:56.955Z,10.43
2022-11-09T18:38:44.793Z,12.87
2022-11-09T18:41:31.267Z,12.30
2022-11-09T18:44:17.756Z,14.83
2022-11-09T18:47:05.888Z,15.27
2022-11-09T18:49:52.699Z,13.17
2022-11-09T18:52:39.456Z,14.50
2022-11-09T18:55:27.530Z,14.17
2022-11-09T18:58:14.412Z,16.10
2022-11-09T19:01:01.104Z,13.17
2022-11-09T19:03:48.391Z,16.97
2022-11-09T19:06:35.907Z,16.40
2022-11-09T19:09:34.992Z,18.17
2022-11-09T19:12:24.160Z,15.73
2022-11-09T19:15:11.153Z,19.67
2022-11-09T19:17:57.512Z,17.37
2022-11-09T19:20:43.908Z,17.33
2022-11-09T19:23:34.378Z,17.10
2022-11-09T19:26:22.199Z,17.83
2022-11-09T19:29:10.313Z,19.37
2022-11-09T19:31:56.912Z,18.57
2022-11-09T19:34:43.573Z,17.47
2022-11-09T19:37:30.071Z,20.07
2022-11-09T19:40:16.970Z,20.30
2022-11-09T19:43:03.637Z,19.87
2022-11-09T19:45:51.201Z,18.57
2022-11-09T19:48:37.517Z,18.43
2022-11-09T19:51:24.606Z,18.27
2022-11-09T19:54:11.597Z,19.63
2022-11-09T19:56:58.108Z,18.73
2022-11-09T19:59:44.469Z,17.20
2022-11-09T20:02:32.069Z,16.77
2022-11-09T20:05:18.585Z,16.23
2022-11-09T20:08:05.192Z,15.67
2022-11-09T20:10:52.258Z,15.40
2022-11-09T20:13:38.638Z,14.90
2022-11-09T20:16:25.207Z,15.37
2022-11-09T20:19:14.135Z,16.43
2022-11-09T20:22:00.692Z,17.00
2022-11-09T20:24:46.961Z,14.90
2022-11-09T20:27:33.328Z,15.57
2022-11-09T20:30:19.712Z,18.43
2022-11-09T20:33:05.979Z,14.77
2022-11-09T20:35:56.800Z,14.30
2022-11-09T20:38:43.325Z,13.57
2022-11-09T20:41:29.945Z,13.90
2022-11-09T20:44:16.751Z,16.40
2022-11-09T20:47:03.342Z,14.37
2022-11-09T20:49:49.589Z,13.70
2022-11-09T20:52:37.305Z,13.83
2022-11-09T20:55:24.493Z,14.80
2022-11-09T20:58:11.925Z,14.90
2022-11-09T21:01:02.885Z,14.97
2022-11-09T21:03:50.784Z,14.10
2022-11-09T21:06:37.533Z,13.73
2022-11-09T21:09:25.183Z,13.23
2022-11-09T21:12:24.786Z,14.57
2022-11-09T21:15:13.992Z,13.03
2022-11-09T21:18:00.530Z,12.83
2022-11-09T21:20:46.843Z,13.17
2022-11-09T21:23:50.511Z,12.93
2022-11-09T21:26:55.928Z,13.00
2022-11-09T21:29:51.490Z,12.50
2022-11-09T21:32:38.014Z,12.70
2022-11-09T21:35:24.876Z,13.33
2022-11-09T21:38:11.712Z,11.70
2022-11-09T21:41:05.385Z,13.93
2022-11-09T21:43:54.953Z,12.87
2022-11-09T21:46:42.289Z,12.40
2022-11-09T21:49:28.994Z,13.10
2022-11-09T21:52:15.445Z,13.40
2022-11-09T21:55:01.916Z,11.53
2022-11-09T21:57:49.243Z,12.73
2022-11-09T22:00:37.052Z,11.77
2022-11-09T22:03:23.883Z,12.23
2022-11-09T22:06:10.460Z,11.77
2022-11-09T22:08:56.880Z,11.67
2022-11-09T22:12:01.158Z,11.20
2022-11-09T22:15:05.237Z,11.90
2022-11-09T22:17:55.473Z,11.00
2022-11-09T22:20:55.815Z,11.90
2022-11-09T22:23:42.363Z,11.97
2022-11-09T22:26:29.027Z,12.47
2022-11-09T22:29:15.649Z,12.07
2022-11-09T22:32:02.460Z,10.83
2022-11-09T22:34:50.535Z,10.90
2022-11-09T22:37:37.262Z,11.33
2022-11-09T22:40:23.635Z,11.13
2022-11-09T22:43:09.975Z,10.20
2022-11-09T22:45:56.307Z,10.53
2022-11-09T22:48:43.229Z,10.13
2022-11-09T22:51:30.763Z,9.67
2022-11-09T22:54:17.008Z,10.07
2022-11-09T22:57:03.839Z,10.50
2022-11-09T22:59:50.056Z,10.13
2022-11-09T23:02:36.528Z,10.10
2022-11-09T23:05:22.888Z,10.67
2022-11-09T23:08:10.608Z,9.97
2022-11-09T23:10:57.521Z,8.80
2022-11-09T23:13:44.531Z,10.23
2022-11-09T23:16:30.879Z,9.60
2022-11-09T23:19:16.361Z,10.00
2022-11-09T23:22:02.966Z,9.33
2022-11-09T23:25:08.003Z,9.33
2022-11-09T23:27:54.652Z,9.43
2022-11-09T23:30:42.132Z,9.80
2022-11-09T23:33:28.858Z,9.50
2022-11-09T23:36:15.175Z,11.80
2022-11-09T23:39:01.506Z,9.90
2022-11-09T23:41:49.190Z,9.80
2022-11-09T23:44:35.690Z,8.87
2022-11-09T23:47:22.504Z,9.30
2022-11-09T23:50:09.287Z,8.80
2022-11-09T23:52:57.251Z,9.33
2022-11-09T23:55:43.880Z,8.37
2022-11-09T23:58:31.979Z,9.13
